sensor_id;sensor_type;location;lat;lon;timestamp;P1;durP1;ratioP1;P2;durP2;ratioP2
38190;SDS011;25191;47.510;19.124;2023-12-22T00:13:19;8.57;;;6.28;;
38190;SDS011;25191;47.510;19.124;2023-12-22T00:33:21;6.80;;;5.82;;
38190;SDS011;25191;47.510;19.124;2023-12-22T00:53:22;7.40;;;5.75;;
38190;SDS011;25191;47.510;19.124;2023-12-22T01:13:22;6.25;;;5.20;;
38190;SDS011;25191;47.510;19.124;2023-12-22T01:33:29;5.45;;;4.57;;
38190;SDS011;25191;47.510;19.124;2023-12-22T01:53:31;5.50;;;4.45;;
38190;SDS011;25191;47.510;19.124;2023-12-22T02:13:32;4.80;;;4.22;;
38190;SDS011;25191;47.510;19.124;2023-12-22T02:33:32;4.70;;;3.47;;
38190;SDS011;25191;47.510;19.124;2023-12-22T02:53:36;4.03;;;3.40;;
38190;SDS011;25191;47.510;19.124;2023-12-22T03:13:36;4.13;;;3.50;;
38190;SDS011;25191;47.510;19.124;2023-12-22T03:33:37;3.08;;;2.78;;
38190;SDS011;25191;47.510;19.124;2023-12-22T03:53:38;2.75;;;2.50;;
38190;SDS011;25191;47.510;19.124;2023-12-22T04:13:39;2.83;;;2.40;;
38190;SDS011;25191;47.510;19.124;2023-12-22T04:33:39;2.83;;;2.05;;
38190;SDS011;25191;47.510;19.124;2023-12-22T04:53:40;2.17;;;1.95;;
38190;SDS011;25191;47.510;19.124;2023-12-22T05:13:40;2.20;;;1.90;;
38190;SDS011;25191;47.510;19.124;2023-12-22T05:33:42;2.70;;;1.80;;
38190;SDS011;25191;47.510;19.124;2023-12-22T05:53:42;2.53;;;1.70;;
38190;SDS011;25191;47.510;19.124;2023-12-22T06:13:43;10.27;;;2.67;;
38190;SDS011;25191;47.510;19.124;2023-12-22T06:33:43;4.97;;;2.40;;
38190;SDS011;25191;47.510;19.124;2023-12-22T06:53:43;6.15;;;1.90;;
38190;SDS011;25191;47.510;19.124;2023-12-22T07:13:45;5.38;;;2.10;;
38190;SDS011;25191;47.510;19.124;2023-12-22T07:33:45;5.47;;;2.97;;
38190;SDS011;25191;47.510;19.124;2023-12-22T07:53:46;13.52;;;5.85;;
38190;SDS011;25191;47.510;19.124;2023-12-22T08:13:47;11.50;;;8.55;;
38190;SDS011;25191;47.510;19.124;2023-12-22T08:33:48;21.05;;;9.93;;
38190;SDS011;25191;47.510;19.124;2023-12-22T08:53:53;16.42;;;10.80;;
38190;SDS011;25191;47.510;19.124;2023-12-22T09:13:57;13.63;;;10.20;;
38190;SDS011;25191;47.510;19.124;2023-12-22T09:33:59;13.40;;;10.23;;
38190;SDS011;25191;47.510;19.124;2023-12-22T09:54:00;19.25;;;11.43;;
38190;SDS011;25191;47.510;19.124;2023-12-22T10:14:03;16.25;;;11.35;;
38190;SDS011;25191;47.510;19.124;2023-12-22T10:34:05;16.02;;;9.23;;
38190;SDS011;25191;47.510;19.124;2023-12-22T10:54:05;15.30;;;8.18;;
38190;SDS011;25191;47.510;19.124;2023-12-22T11:14:06;13.73;;;9.00;;
38190;SDS011;25191;47.510;19.124;2023-12-22T11:34:07;18.45;;;8.45;;
38190;SDS011;25191;47.510;19.124;2023-12-22T12:14:48;23.05;;;10.15;;
38190;SDS011;25191;47.510;19.124;2023-12-22T12:34:54;16.02;;;10.93;;
38190;SDS011;25191;47.510;19.124;2023-12-22T12:54:56;14.93;;;10.10;;
38190;SDS011;25191;47.510;19.124;2023-12-22T13:15:01;17.15;;;9.20;;
38190;SDS011;25191;47.510;19.124;2023-12-22T13:35:03;10.93;;;8.40;;
38190;SDS011;25191;47.510;19.124;2023-12-22T13:55:11;8.98;;;6.95;;
38190;SDS011;25191;47.510;19.124;2023-12-22T14:15:12;8.70;;;6.07;;
38190;SDS011;25191;47.510;19.124;2023-12-22T14:35:13;6.70;;;5.30;;
38190;SDS011;25191;47.510;19.124;2023-12-22T14:55:14;7.03;;;4.18;;
38190;SDS011;25191;47.510;19.124;2023-12-22T15:15:16;5.82;;;3.70;;
38190;SDS011;25191;47.510;19.124;2023-12-22T15:35:17;7.13;;;3.28;;
38190;SDS011;25191;47.510;19.124;2023-12-22T15:55:17;5.68;;;3.30;;
38190;SDS011;25191;47.510;19.124;2023-12-22T16:15:17;5.40;;;2.78;;
38190;SDS011;25191;47.510;19.124;2023-12-22T16:35:18;7.28;;;2.53;;
38190;SDS011;25191;47.510;19.124;2023-12-22T16:55:19;5.38;;;2.42;;
38190;SDS011;25191;47.510;19.124;2023-12-22T17:15:19;4.75;;;2.00;;
38190;SDS011;25191;47.510;19.124;2023-12-22T17:35:19;5.30;;;2.40;;
38190;SDS011;25191;47.510;19.124;2023-12-22T17:55:20;10.18;;;4.95;;
38190;SDS011;25191;47.510;19.124;2023-12-22T18:15:21;17.55;;;13.40;;
38190;SDS011;25191;47.510;19.124;2023-12-22T18:35:22;18.73;;;12.93;;
38190;SDS011;25191;47.510;19.124;2023-12-22T18:55:22;13.38;;;9.63;;
38190;SDS011;25191;47.510;19.124;2023-12-22T19:15:23;12.88;;;8.13;;
38190;SDS011;25191;47.510;19.124;2023-12-22T19:35:24;10.93;;;7.05;;
38190;SDS011;25191;47.510;19.124;2023-12-22T19:55:24;9.73;;;6.10;;
38190;SDS011;25191;47.510;19.124;2023-12-22T20:15:26;7.85;;;5.35;;
38190;SDS011;25191;47.510;19.124;2023-12-22T20:35:26;8.20;;;5.65;;
38190;SDS011;25191;47.510;19.124;2023-12-22T20:55:26;12.68;;;4.90;;
38190;SDS011;25191;47.510;19.124;2023-12-22T21:15:27;6.00;;;4.50;;
38190;SDS011;25191;47.510;19.124;2023-12-22T21:35:28;7.85;;;4.22;;
38190;SDS011;25191;47.510;19.124;2023-12-22T21:55:28;4.05;;;3.30;;
38190;SDS011;25191;47.510;19.124;2023-12-22T22:15:30;4.82;;;3.05;;
38190;SDS011;25191;47.510;19.124;2023-12-22T22:35:30;4.65;;;3.05;;
38190;SDS011;25191;47.510;19.124;2023-12-22T22:55:31;2.65;;;2.30;;
38190;SDS011;25191;47.510;19.124;2023-12-22T23:15:31;3.80;;;2.67;;
38190;SDS011;25191;47.510;19.124;2023-12-22T23:35:32;2.20;;;2.00;;
38190;SDS011;25191;47.510;19.124;2023-12-22T23:55:32;2.00;;;1.80;;
